sensor_id;sensor_type;location;lat;lon;timestamp;temperature;humidity
16283;DHT22;8249;48.708;9.030;2023-05-31T00:01:30;14.60;90.40
16283;DHT22;8249;48.708;9.030;2023-05-31T00:03:57;14.60;90.40
16283;DHT22;8249;48.708;9.030;2023-05-31T00:06:24;14.60;90.60
16283;DHT22;8249;48.708;9.030;2023-05-31T00:08:52;14.60;90.80
16283;DHT22;8249;48.708;9.030;2023-05-31T00:11:19;14.50;90.60
16283;DHT22;8249;48.708;9.030;2023-05-31T00:13:46;14.50;90.50
16283;DHT22;8249;48.708;9.030;2023-05-31T00:16:13;14.50;90.60
16283;DHT22;8249;48.708;9.030;2023-05-31T00:18:40;14.50;90.60
16283;DHT22;8249;48.708;9.030;2023-05-31T00:21:06;14.40;90.60
16283;DHT22;8249;48.708;9.030;2023-05-31T00:23:33;14.40;90.60
16283;DHT22;8249;48.708;9.030;2023-05-31T00:26:02;14.40;90.40
16283;DHT22;8249;48.708;9.030;2023-05-31T00:28:29;14.40;90.40
16283;DHT22;8249;48.708;9.030;2023-05-31T00:30:56;14.40;90.40
16283;DHT22;8249;48.708;9.030;2023-05-31T00:33:23;14.40;90.70
16283;DHT22;8249;48.708;9.030;2023-05-31T00:35:50;14.30;90.60
16283;DHT22;8249;48.708;9.030;2023-05-31T00:38:17;14.30;90.50
16283;DHT22;8249;48.708;9.030;2023-05-31T00:40:44;14.30;90.80
16283;DHT22;8249;48.708;9.030;2023-05-31T00:43:14;14.20;90.90
16283;DHT22;8249;48.708;9.030;2023-05-31T00:45:41;14.20;90.80
16283;DHT22;8249;48.708;9.030;2023-05-31T00:48:08;14.20;90.90
16283;DHT22;8249;48.708;9.030;2023-05-31T00:50:36;14.20;90.70
16283;DHT22;8249;48.708;9.030;2023-05-31T00:53:04;14.10;90.80
16283;DHT22;8249;48.708;9.030;2023-05-31T00:55:32;14.10;90.70
16283;DHT22;8249;48.708;9.030;2023-05-31T00:57:59;14.10;90.80
16283;DHT22;8249;48.708;9.030;2023-05-31T01:00:28;14.10;91.10
16283;DHT22;8249;48.708;9.030;2023-05-31T01:02:57;14.00;91.30
16283;DHT22;8249;48.708;9.030;2023-05-31T01:05:26;14.00;91.60
16283;DHT22;8249;48.708;9.030;2023-05-31T01:07:53;13.90;91.30
16283;DHT22;8249;48.708;9.030;2023-05-31T01:10:20;13.80;91.70
16283;DHT22;8249;48.708;9.030;2023-05-31T01:12:56;13.80;91.70
16283;DHT22;8249;48.708;9.030;2023-05-31T01:15:32;13.70;91.70
16283;DHT22;8249;48.708;9.030;2023-05-31T01:18:08;13.70;91.80
16283;DHT22;8249;48.708;9.030;2023-05-31T01:20:40;13.70;91.90
16283;DHT22;8249;48.708;9.030;2023-05-31T01:23:21;13.60;92.10
16283;DHT22;8249;48.708;9.030;2023-05-31T01:28:41;13.50;92.70
16283;DHT22;8249;48.708;9.030;2023-05-31T01:31:14;13.40;92.90
16283;DHT22;8249;48.708;9.030;2023-05-31T01:33:43;13.30;93.10
16283;DHT22;8249;48.708;9.030;2023-05-31T01:36:10;13.30;93.40
16283;DHT22;8249;48.708;9.030;2023-05-31T01:38:41;13.20;93.50
16283;DHT22;8249;48.708;9.030;2023-05-31T01:41:09;13.20;93.80
16283;DHT22;8249;48.708;9.030;2023-05-31T01:43:42;13.10;93.80
16283;DHT22;8249;48.708;9.030;2023-05-31T01:46:11;13.10;94.00
16283;DHT22;8249;48.708;9.030;2023-05-31T01:48:40;13.00;94.30
16283;DHT22;8249;48.708;9.030;2023-05-31T01:51:10;12.90;94.40
16283;DHT22;8249;48.708;9.030;2023-05-31T01:53:39;12.90;94.40
16283;DHT22;8249;48.708;9.030;2023-05-31T01:56:07;12.80;94.60
16283;DHT22;8249;48.708;9.030;2023-05-31T01:58:36;12.80;94.70
16283;DHT22;8249;48.708;9.030;2023-05-31T02:01:10;12.80;94.60
16283;DHT22;8249;48.708;9.030;2023-05-31T02:03:38;12.80;94.40
16283;DHT22;8249;48.708;9.030;2023-05-31T02:06:06;12.80;94.40
16283;DHT22;8249;48.708;9.030;2023-05-31T02:08:34;12.70;94.30
16283;DHT22;8249;48.708;9.030;2023-05-31T02:11:01;12.70;94.60
16283;DHT22;8249;48.708;9.030;2023-05-31T02:13:30;12.70;94.70
16283;DHT22;8249;48.708;9.030;2023-05-31T02:15:57;12.70;94.80
16283;DHT22;8249;48.708;9.030;2023-05-31T02:18:26;12.70;94.70
16283;DHT22;8249;48.708;9.030;2023-05-31T02:20:53;12.70;94.70
16283;DHT22;8249;48.708;9.030;2023-05-31T02:23:21;12.70;94.90
16283;DHT22;8249;48.708;9.030;2023-05-31T02:25:49;12.60;94.80
16283;DHT22;8249;48.708;9.030;2023-05-31T02:28:17;12.60;95.00
16283;DHT22;8249;48.708;9.030;2023-05-31T02:30:54;12.60;94.90
16283;DHT22;8249;48.708;9.030;2023-05-31T02:33:23;12.60;94.90
16283;DHT22;8249;48.708;9.030;2023-05-31T02:35:51;12.60;94.80
16283;DHT22;8249;48.708;9.030;2023-05-31T02:38:19;12.60;95.00
16283;DHT22;8249;48.708;9.030;2023-05-31T02:40:46;12.60;94.80
16283;DHT22;8249;48.708;9.030;2023-05-31T02:43:13;12.60;95.00
16283;DHT22;8249;48.708;9.030;2023-05-31T02:45:40;12.50;95.00
16283;DHT22;8249;48.708;9.030;2023-05-31T02:48:08;12.60;95.10
16283;DHT22;8249;48.708;9.030;2023-05-31T02:50:35;12.50;95.20
16283;DHT22;8249;48.708;9.030;2023-05-31T02:53:08;12.60;95.70
16283;DHT22;8249;48.708;9.030;2023-05-31T02:55:43;12.50;95.70
16283;DHT22;8249;48.708;9.030;2023-05-31T02:58:18;12.50;95.60
16283;DHT22;8249;48.708;9.030;2023-05-31T03:01:08;12.40;95.90
16283;DHT22;8249;48.708;9.030;2023-05-31T03:03:43;12.40;95.90
16283;DHT22;8249;48.708;9.030;2023-05-31T03:06:32;12.40;96.00
16283;DHT22;8249;48.708;9.030;2023-05-31T03:09:02;12.30;96.00
16283;DHT22;8249;48.708;9.030;2023-05-31T03:11:30;12.30;96.00
16283;DHT22;8249;48.708;9.030;2023-05-31T03:13:57;12.30;96.10
16283;DHT22;8249;48.708;9.030;2023-05-31T03:16:32;12.30;96.00
16283;DHT22;8249;48.708;9.030;2023-05-31T03:18:59;12.30;96.10
16283;DHT22;8249;48.708;9.030;2023-05-31T03:21:27;12.30;96.10
16283;DHT22;8249;48.708;9.030;2023-05-31T03:23:54;12.30;96.10
16283;DHT22;8249;48.708;9.030;2023-05-31T03:26:22;12.30;95.90
16283;DHT22;8249;48.708;9.030;2023-05-31T03:28:50;12.30;96.20
16283;DHT22;8249;48.708;9.030;2023-05-31T03:31:17;12.30;95.90
16283;DHT22;8249;48.708;9.030;2023-05-31T03:33:45;12.40;96.00
16283;DHT22;8249;48.708;9.030;2023-05-31T03:36:12;12.40;96.10
16283;DHT22;8249;48.708;9.030;2023-05-31T03:38:39;12.40;96.20
16283;DHT22;8249;48.708;9.030;2023-05-31T03:41:06;12.30;96.40
16283;DHT22;8249;48.708;9.030;2023-05-31T03:43:44;12.30;96.80
16283;DHT22;8249;48.708;9.030;2023-05-31T03:46:11;12.30;96.20
16283;DHT22;8249;48.708;9.030;2023-05-31T03:48:38;12.30;96.40
16283;DHT22;8249;48.708;9.030;2023-05-31T03:51:07;12.40;96.30
16283;DHT22;8249;48.708;9.030;2023-05-31T03:53:34;12.40;96.20
16283;DHT22;8249;48.708;9.030;2023-05-31T03:56:02;12.40;96.30
16283;DHT22;8249;48.708;9.030;2023-05-31T03:58:28;12.40;96.30
16283;DHT22;8249;48.708;9.030;2023-05-31T04:00:57;12.40;96.30
16283;DHT22;8249;48.708;9.030;2023-05-31T04:03:26;12.50;96.10
16283;DHT22;8249;48.708;9.030;2023-05-31T04:05:53;12.50;96.00
16283;DHT22;8249;48.708;9.030;2023-05-31T04:08:23;12.60;96.00
16283;DHT22;8249;48.708;9.030;2023-05-31T04:10:51;12.60;95.70
16283;DHT22;8249;48.708;9.030;2023-05-31T04:13:17;12.70;95.30
16283;DHT22;8249;48.708;9.030;2023-05-31T04:15:44;12.70;95.60
16283;DHT22;8249;48.708;9.030;2023-05-31T04:18:13;12.80;95.60
16283;DHT22;8249;48.708;9.030;2023-05-31T04:20:40;12.80;95.50
16283;DHT22;8249;48.708;9.030;2023-05-31T04:23:07;12.90;95.80
16283;DHT22;8249;48.708;9.030;2023-05-31T04:25:34;12.90;95.90
16283;DHT22;8249;48.708;9.030;2023-05-31T04:28:01;12.90;95.90
16283;DHT22;8249;48.708;9.030;2023-05-31T04:30:31;13.00;95.60
16283;DHT22;8249;48.708;9.030;2023-05-31T04:32:58;13.10;95.50
16283;DHT22;8249;48.708;9.030;2023-05-31T04:35:27;13.10;95.40
16283;DHT22;8249;48.708;9.030;2023-05-31T04:37:56;13.20;95.40
16283;DHT22;8249;48.708;9.030;2023-05-31T04:40:25;13.30;95.30
16283;DHT22;8249;48.708;9.030;2023-05-31T04:42:52;13.30;95.40
16283;DHT22;8249;48.708;9.030;2023-05-31T04:45:25;13.40;95.50
16283;DHT22;8249;48.708;9.030;2023-05-31T04:47:53;13.40;95.30
16283;DHT22;8249;48.708;9.030;2023-05-31T04:50:21;13.50;95.30
16283;DHT22;8249;48.708;9.030;2023-05-31T04:52:49;13.50;95.20
16283;DHT22;8249;48.708;9.030;2023-05-31T04:55:17;13.60;95.10
16283;DHT22;8249;48.708;9.030;2023-05-31T04:57:44;13.70;96.30
16283;DHT22;8249;48.708;9.030;2023-05-31T05:00:13;13.80;95.60
16283;DHT22;8249;48.708;9.030;2023-05-31T05:03:04;13.90;95.60
16283;DHT22;8249;48.708;9.030;2023-05-31T05:05:31;14.00;95.50
16283;DHT22;8249;48.708;9.030;2023-05-31T05:08:00;14.10;95.50
16283;DHT22;8249;48.708;9.030;2023-05-31T05:10:28;14.20;95.20
16283;DHT22;8249;48.708;9.030;2023-05-31T05:12:55;14.30;94.50
16283;DHT22;8249;48.708;9.030;2023-05-31T05:15:22;14.60;95.40
16283;DHT22;8249;48.708;9.030;2023-05-31T05:17:50;14.70;94.80
16283;DHT22;8249;48.708;9.030;2023-05-31T05:20:17;14.70;94.60
16283;DHT22;8249;48.708;9.030;2023-05-31T05:22:49;14.70;94.80
16283;DHT22;8249;48.708;9.030;2023-05-31T05:25:19;14.80;94.80
16283;DHT22;8249;48.708;9.030;2023-05-31T05:27:47;14.80;94.70
16283;DHT22;8249;48.708;9.030;2023-05-31T05:30:14;14.90;94.70
16283;DHT22;8249;48.708;9.030;2023-05-31T05:32:41;15.00;94.60
16283;DHT22;8249;48.708;9.030;2023-05-31T05:35:08;15.10;94.60
16283;DHT22;8249;48.708;9.030;2023-05-31T05:37:36;15.30;93.90
16283;DHT22;8249;48.708;9.030;2023-05-31T05:40:04;15.40;95.10
16283;DHT22;8249;48.708;9.030;2023-05-31T05:42:34;15.40;94.50
16283;DHT22;8249;48.708;9.030;2023-05-31T05:45:04;15.60;95.10
16283;DHT22;8249;48.708;9.030;2023-05-31T05:47:32;15.70;93.60
16283;DHT22;8249;48.708;9.030;2023-05-31T05:49:59;15.80;93.50
16283;DHT22;8249;48.708;9.030;2023-05-31T05:52:26;15.80;93.30
16283;DHT22;8249;48.708;9.030;2023-05-31T05:54:53;16.00;93.50
16283;DHT22;8249;48.708;9.030;2023-05-31T05:57:21;16.00;92.70
16283;DHT22;8249;48.708;9.030;2023-05-31T05:59:52;16.10;92.70
16283;DHT22;8249;48.708;9.030;2023-05-31T06:02:21;16.20;92.80
16283;DHT22;8249;48.708;9.030;2023-05-31T06:04:50;16.30;92.20
16283;DHT22;8249;48.708;9.030;2023-05-31T06:07:17;16.30;92.20
16283;DHT22;8249;48.708;9.030;2023-05-31T06:09:49;16.40;92.30
16283;DHT22;8249;48.708;9.030;2023-05-31T06:12:19;16.50;91.90
16283;DHT22;8249;48.708;9.030;2023-05-31T06:14:46;16.60;92.50
16283;DHT22;8249;48.708;9.030;2023-05-31T06:17:16;16.70;91.70
16283;DHT22;8249;48.708;9.030;2023-05-31T06:19:43;16.80;92.60
16283;DHT22;8249;48.708;9.030;2023-05-31T06:22:10;16.90;92.20
16283;DHT22;8249;48.708;9.030;2023-05-31T06:24:37;16.90;91.80
16283;DHT22;8249;48.708;9.030;2023-05-31T06:27:05;17.00;92.10
16283;DHT22;8249;48.708;9.030;2023-05-31T06:29:36;17.00;91.00
16283;DHT22;8249;48.708;9.030;2023-05-31T06:32:20;17.10;91.80
16283;DHT22;8249;48.708;9.030;2023-05-31T06:34:48;17.30;91.50
16283;DHT22;8249;48.708;9.030;2023-05-31T06:37:15;17.30;91.90
16283;DHT22;8249;48.708;9.030;2023-05-31T06:39:42;17.40;91.40
16283;DHT22;8249;48.708;9.030;2023-05-31T06:42:09;17.30;91.00
16283;DHT22;8249;48.708;9.030;2023-05-31T06:44:46;17.50;91.50
16283;DHT22;8249;48.708;9.030;2023-05-31T06:47:28;17.60;91.80
16283;DHT22;8249;48.708;9.030;2023-05-31T06:50:13;17.60;91.30
16283;DHT22;8249;48.708;9.030;2023-05-31T06:53:06;17.70;91.00
16283;DHT22;8249;48.708;9.030;2023-05-31T06:55:50;17.80;91.30
16283;DHT22;8249;48.708;9.030;2023-05-31T06:58:20;17.90;91.40
16283;DHT22;8249;48.708;9.030;2023-05-31T07:00:50;18.10;91.30
16283;DHT22;8249;48.708;9.030;2023-05-31T07:03:18;18.20;92.10
16283;DHT22;8249;48.708;9.030;2023-05-31T07:05:46;18.30;91.70
16283;DHT22;8249;48.708;9.030;2023-05-31T07:08:13;18.40;91.00
16283;DHT22;8249;48.708;9.030;2023-05-31T07:11:02;18.60;91.50
16283;DHT22;8249;48.708;9.030;2023-05-31T07:13:29;18.70;91.50
16283;DHT22;8249;48.708;9.030;2023-05-31T07:15:57;18.70;90.90
16283;DHT22;8249;48.708;9.030;2023-05-31T07:18:25;18.90;90.80
16283;DHT22;8249;48.708;9.030;2023-05-31T07:20:56;18.70;90.10
16283;DHT22;8249;48.708;9.030;2023-05-31T07:23:23;18.80;90.40
16283;DHT22;8249;48.708;9.030;2023-05-31T07:25:50;18.70;90.00
16283;DHT22;8249;48.708;9.030;2023-05-31T07:28:17;18.80;91.70
16283;DHT22;8249;48.708;9.030;2023-05-31T07:30:44;19.00;90.60
16283;DHT22;8249;48.708;9.030;2023-05-31T07:33:14;19.20;90.80
16283;DHT22;8249;48.708;9.030;2023-05-31T07:35:43;19.20;89.20
16283;DHT22;8249;48.708;9.030;2023-05-31T07:38:10;19.40;90.20
16283;DHT22;8249;48.708;9.030;2023-05-31T07:40:37;19.50;90.60
16283;DHT22;8249;48.708;9.030;2023-05-31T07:43:04;19.60;90.00
16283;DHT22;8249;48.708;9.030;2023-05-31T07:45:31;19.70;88.60
16283;DHT22;8249;48.708;9.030;2023-05-31T07:47:58;19.70;88.30
16283;DHT22;8249;48.708;9.030;2023-05-31T07:50:25;19.90;89.60
16283;DHT22;8249;48.708;9.030;2023-05-31T07:52:53;19.80;88.80
16283;DHT22;8249;48.708;9.030;2023-05-31T07:55:20;20.00;89.40
16283;DHT22;8249;48.708;9.030;2023-05-31T07:57:47;20.10;89.40
16283;DHT22;8249;48.708;9.030;2023-05-31T08:00:14;20.30;89.90
16283;DHT22;8249;48.708;9.030;2023-05-31T08:02:41;20.30;88.70
16283;DHT22;8249;48.708;9.030;2023-05-31T08:05:09;20.60;89.60
16283;DHT22;8249;48.708;9.030;2023-05-31T08:07:35;20.80;89.70
16283;DHT22;8249;48.708;9.030;2023-05-31T08:10:05;21.10;89.10
16283;DHT22;8249;48.708;9.030;2023-05-31T08:12:33;21.20;88.60
16283;DHT22;8249;48.708;9.030;2023-05-31T08:15:00;21.30;86.40
16283;DHT22;8249;48.708;9.030;2023-05-31T08:17:27;21.50;86.20
16283;DHT22;8249;48.708;9.030;2023-05-31T08:19:54;21.30;84.70
16283;DHT22;8249;48.708;9.030;2023-05-31T08:22:22;21.40;86.60
16283;DHT22;8249;48.708;9.030;2023-05-31T08:24:49;21.60;88.40
16283;DHT22;8249;48.708;9.030;2023-05-31T08:27:18;21.60;85.10
16283;DHT22;8249;48.708;9.030;2023-05-31T08:29:45;21.60;86.10
16283;DHT22;8249;48.708;9.030;2023-05-31T08:32:12;21.70;86.40
16283;DHT22;8249;48.708;9.030;2023-05-31T08:34:38;21.80;84.30
16283;DHT22;8249;48.708;9.030;2023-05-31T08:37:06;21.80;85.70
16283;DHT22;8249;48.708;9.030;2023-05-31T08:39:33;22.00;85.50
16283;DHT22;8249;48.708;9.030;2023-05-31T08:42:00;22.00;83.90
16283;DHT22;8249;48.708;9.030;2023-05-31T08:44:30;22.00;84.30
16283;DHT22;8249;48.708;9.030;2023-05-31T08:46:58;22.10;84.60
16283;DHT22;8249;48.708;9.030;2023-05-31T08:49:26;22.20;82.90
16283;DHT22;8249;48.708;9.030;2023-05-31T08:51:54;22.30;83.00
16283;DHT22;8249;48.708;9.030;2023-05-31T08:54:23;22.60;84.90
16283;DHT22;8249;48.708;9.030;2023-05-31T08:56:51;22.90;82.80
16283;DHT22;8249;48.708;9.030;2023-05-31T08:59:19;22.80;82.00
16283;DHT22;8249;48.708;9.030;2023-05-31T09:01:47;23.20;84.80
16283;DHT22;8249;48.708;9.030;2023-05-31T09:04:16;23.40;83.00
16283;DHT22;8249;48.708;9.030;2023-05-31T09:06:44;23.60;82.70
16283;DHT22;8249;48.708;9.030;2023-05-31T09:09:11;23.50;80.60
16283;DHT22;8249;48.708;9.030;2023-05-31T09:11:38;23.60;81.60
16283;DHT22;8249;48.708;9.030;2023-05-31T09:14:07;23.70;81.70
16283;DHT22;8249;48.708;9.030;2023-05-31T09:16:35;23.80;80.60
16283;DHT22;8249;48.708;9.030;2023-05-31T09:19:04;23.80;81.20
16283;DHT22;8249;48.708;9.030;2023-05-31T09:21:38;23.70;77.80
16283;DHT22;8249;48.708;9.030;2023-05-31T09:24:06;23.80;80.80
16283;DHT22;8249;48.708;9.030;2023-05-31T09:26:33;24.10;80.70
16283;DHT22;8249;48.708;9.030;2023-05-31T09:29:00;24.20;80.10
16283;DHT22;8249;48.708;9.030;2023-05-31T09:31:28;24.10;78.00
16283;DHT22;8249;48.708;9.030;2023-05-31T09:33:55;24.30;79.50
16283;DHT22;8249;48.708;9.030;2023-05-31T09:36:27;24.40;78.80
16283;DHT22;8249;48.708;9.030;2023-05-31T09:39:02;24.60;75.20
16283;DHT22;8249;48.708;9.030;2023-05-31T09:41:31;24.10;76.40
16283;DHT22;8249;48.708;9.030;2023-05-31T09:43:58;24.00;77.90
16283;DHT22;8249;48.708;9.030;2023-05-31T09:46:25;24.30;79.70
16283;DHT22;8249;48.708;9.030;2023-05-31T09:48:59;24.70;78.80
16283;DHT22;8249;48.708;9.030;2023-05-31T09:51:28;24.60;76.00
16283;DHT22;8249;48.708;9.030;2023-05-31T09:53:57;24.70;77.50
16283;DHT22;8249;48.708;9.030;2023-05-31T09:56:27;24.70;74.40
16283;DHT22;8249;48.708;9.030;2023-05-31T09:58:56;24.50;74.50
16283;DHT22;8249;48.708;9.030;2023-05-31T10:01:23;24.70;75.50
16283;DHT22;8249;48.708;9.030;2023-05-31T10:03:51;25.00;76.60
16283;DHT22;8249;48.708;9.030;2023-05-31T10:06:19;25.20;73.70
16283;DHT22;8249;48.708;9.030;2023-05-31T10:08:49;25.00;74.20
16283;DHT22;8249;48.708;9.030;2023-05-31T10:11:19;25.10;72.80
16283;DHT22;8249;48.708;9.030;2023-05-31T10:13:49;25.30;72.90
16283;DHT22;8249;48.708;9.030;2023-05-31T10:16:17;25.40;71.40
16283;DHT22;8249;48.708;9.030;2023-05-31T10:18:48;25.80;72.80
16283;DHT22;8249;48.708;9.030;2023-05-31T10:21:17;26.20;72.20
16283;DHT22;8249;48.708;9.030;2023-05-31T10:24:02;26.50;72.30
16283;DHT22;8249;48.708;9.030;2023-05-31T10:26:35;26.50;70.90
16283;DHT22;8249;48.708;9.030;2023-05-31T10:29:09;26.40;69.00
16283;DHT22;8249;48.708;9.030;2023-05-31T10:31:41;26.20;68.90
16283;DHT22;8249;48.708;9.030;2023-05-31T10:34:15;26.00;68.90
16283;DHT22;8249;48.708;9.030;2023-05-31T10:36:43;26.00;69.60
16283;DHT22;8249;48.708;9.030;2023-05-31T10:39:19;26.30;70.40
16283;DHT22;8249;48.708;9.030;2023-05-31T10:41:50;26.40;69.70
16283;DHT22;8249;48.708;9.030;2023-05-31T10:44:25;26.70;69.00
16283;DHT22;8249;48.708;9.030;2023-05-31T10:47:01;26.60;70.10
16283;DHT22;8249;48.708;9.030;2023-05-31T10:49:32;26.80;67.60
16283;DHT22;8249;48.708;9.030;2023-05-31T10:52:05;27.10;67.80
16283;DHT22;8249;48.708;9.030;2023-05-31T10:54:34;27.00;67.60
16283;DHT22;8249;48.708;9.030;2023-05-31T10:57:03;27.00;68.60
16283;DHT22;8249;48.708;9.030;2023-05-31T10:59:40;27.30;69.30
16283;DHT22;8249;48.708;9.030;2023-05-31T11:02:09;27.40;67.50
16283;DHT22;8249;48.708;9.030;2023-05-31T11:04:37;27.60;66.70
16283;DHT22;8249;48.708;9.030;2023-05-31T11:07:15;27.90;67.70
16283;DHT22;8249;48.708;9.030;2023-05-31T11:09:57;27.60;67.80
16283;DHT22;8249;48.708;9.030;2023-05-31T11:12:32;27.80;67.20
16283;DHT22;8249;48.708;9.030;2023-05-31T11:15:01;28.10;69.00
16283;DHT22;8249;48.708;9.030;2023-05-31T11:17:29;28.40;65.90
16283;DHT22;8249;48.708;9.030;2023-05-31T11:19:56;27.90;66.70
16283;DHT22;8249;48.708;9.030;2023-05-31T11:22:27;27.90;66.70
16283;DHT22;8249;48.708;9.030;2023-05-31T11:24:56;28.40;65.80
16283;DHT22;8249;48.708;9.030;2023-05-31T11:27:35;28.70;66.90
16283;DHT22;8249;48.708;9.030;2023-05-31T11:30:03;28.90;64.80
16283;DHT22;8249;48.708;9.030;2023-05-31T11:32:58;28.70;64.20
16283;DHT22;8249;48.708;9.030;2023-05-31T11:35:25;27.90;65.30
16283;DHT22;8249;48.708;9.030;2023-05-31T11:38:05;27.90;66.80
16283;DHT22;8249;48.708;9.030;2023-05-31T11:40:34;28.50;66.40
16283;DHT22;8249;48.708;9.030;2023-05-31T11:43:08;28.40;64.60
16283;DHT22;8249;48.708;9.030;2023-05-31T11:45:43;28.60;65.30
16283;DHT22;8249;48.708;9.030;2023-05-31T11:48:21;28.90;65.40
16283;DHT22;8249;48.708;9.030;2023-05-31T11:50:50;29.10;64.50
16283;DHT22;8249;48.708;9.030;2023-05-31T11:53:17;29.10;65.70
16283;DHT22;8249;48.708;9.030;2023-05-31T11:55:46;28.80;63.50
16283;DHT22;8249;48.708;9.030;2023-05-31T11:58:14;29.00;64.70
16283;DHT22;8249;48.708;9.030;2023-05-31T12:00:45;29.00;63.60
16283;DHT22;8249;48.708;9.030;2023-05-31T12:03:14;29.30;62.60
16283;DHT22;8249;48.708;9.030;2023-05-31T12:05:44;28.60;60.90
16283;DHT22;8249;48.708;9.030;2023-05-31T12:08:16;28.20;62.90
16283;DHT22;8249;48.708;9.030;2023-05-31T12:10:43;27.80;63.20
16283;DHT22;8249;48.708;9.030;2023-05-31T12:13:15;27.80;63.90
16283;DHT22;8249;48.708;9.030;2023-05-31T12:15:50;28.40;66.80
16283;DHT22;8249;48.708;9.030;2023-05-31T12:18:17;28.20;62.60
16283;DHT22;8249;48.708;9.030;2023-05-31T12:20:44;28.10;63.90
16283;DHT22;8249;48.708;9.030;2023-05-31T12:23:12;28.20;63.90
16283;DHT22;8249;48.708;9.030;2023-05-31T12:25:46;28.50;63.60
16283;DHT22;8249;48.708;9.030;2023-05-31T12:28:17;28.70;61.90
16283;DHT22;8249;48.708;9.030;2023-05-31T12:30:45;29.00;62.10
16283;DHT22;8249;48.708;9.030;2023-05-31T12:33:12;28.50;62.80
16283;DHT22;8249;48.708;9.030;2023-05-31T12:35:40;28.50;62.10
16283;DHT22;8249;48.708;9.030;2023-05-31T12:38:07;28.50;60.80
16283;DHT22;8249;48.708;9.030;2023-05-31T12:40:37;28.50;61.70
16283;DHT22;8249;48.708;9.030;2023-05-31T12:43:05;28.80;59.70
16283;DHT22;8249;48.708;9.030;2023-05-31T12:45:38;28.80;60.00
16283;DHT22;8249;48.708;9.030;2023-05-31T12:48:07;28.80;59.50
16283;DHT22;8249;48.708;9.030;2023-05-31T12:50:35;29.10;61.90
16283;DHT22;8249;48.708;9.030;2023-05-31T12:53:05;29.00;60.00
16283;DHT22;8249;48.708;9.030;2023-05-31T12:55:32;29.10;60.80
16283;DHT22;8249;48.708;9.030;2023-05-31T12:57:59;29.20;60.00
16283;DHT22;8249;48.708;9.030;2023-05-31T13:00:26;29.20;58.80
16283;DHT22;8249;48.708;9.030;2023-05-31T13:02:54;28.60;56.60
16283;DHT22;8249;48.708;9.030;2023-05-31T13:05:22;28.20;57.20
16283;DHT22;8249;48.708;9.030;2023-05-31T13:07:51;28.00;59.40
16283;DHT22;8249;48.708;9.030;2023-05-31T13:10:19;28.00;58.30
16283;DHT22;8249;48.708;9.030;2023-05-31T13:12:46;28.10;58.90
16283;DHT22;8249;48.708;9.030;2023-05-31T13:15:13;28.50;59.70
16283;DHT22;8249;48.708;9.030;2023-05-31T13:17:40;28.90;60.70
16283;DHT22;8249;48.708;9.030;2023-05-31T13:20:10;28.70;59.80
16283;DHT22;8249;48.708;9.030;2023-05-31T13:22:37;28.80;59.30
16283;DHT22;8249;48.708;9.030;2023-05-31T13:25:05;28.80;59.60
16283;DHT22;8249;48.708;9.030;2023-05-31T13:27:32;28.80;57.50
16283;DHT22;8249;48.708;9.030;2023-05-31T13:29:59;28.80;57.00
16283;DHT22;8249;48.708;9.030;2023-05-31T13:32:26;28.80;56.10
16283;DHT22;8249;48.708;9.030;2023-05-31T13:34:53;28.70;59.00
16283;DHT22;8249;48.708;9.030;2023-05-31T13:37:21;28.60;57.60
16283;DHT22;8249;48.708;9.030;2023-05-31T13:39:48;28.40;57.20
16283;DHT22;8249;48.708;9.030;2023-05-31T13:42:15;28.50;56.90
16283;DHT22;8249;48.708;9.030;2023-05-31T13:44:42;28.50;57.30
16283;DHT22;8249;48.708;9.030;2023-05-31T13:47:09;28.70;57.70
16283;DHT22;8249;48.708;9.030;2023-05-31T13:49:36;28.50;55.80
16283;DHT22;8249;48.708;9.030;2023-05-31T13:52:05;28.00;57.40
16283;DHT22;8249;48.708;9.030;2023-05-31T13:54:35;27.90;57.80
16283;DHT22;8249;48.708;9.030;2023-05-31T13:57:02;28.10;58.10
16283;DHT22;8249;48.708;9.030;2023-05-31T13:59:29;28.30;57.60
16283;DHT22;8249;48.708;9.030;2023-05-31T14:01:57;28.20;55.60
16283;DHT22;8249;48.708;9.030;2023-05-31T14:04:23;28.40;56.50
16283;DHT22;8249;48.708;9.030;2023-05-31T14:06:51;28.20;55.40
16283;DHT22;8249;48.708;9.030;2023-05-31T14:09:18;28.10;55.60
16283;DHT22;8249;48.708;9.030;2023-05-31T14:11:46;28.10;55.90
16283;DHT22;8249;48.708;9.030;2023-05-31T14:14:13;27.80;56.80
16283;DHT22;8249;48.708;9.030;2023-05-31T14:16:40;27.80;57.90
16283;DHT22;8249;48.708;9.030;2023-05-31T14:19:07;27.80;56.60
16283;DHT22;8249;48.708;9.030;2023-05-31T14:21:34;28.10;57.00
16283;DHT22;8249;48.708;9.030;2023-05-31T14:24:02;28.00;57.30
16283;DHT22;8249;48.708;9.030;2023-05-31T14:26:30;28.10;55.10
16283;DHT22;8249;48.708;9.030;2023-05-31T14:28:59;28.00;57.00
16283;DHT22;8249;48.708;9.030;2023-05-31T14:31:26;28.10;56.20
16283;DHT22;8249;48.708;9.030;2023-05-31T14:33:53;28.20;57.20
16283;DHT22;8249;48.708;9.030;2023-05-31T14:36:20;27.60;55.00
16283;DHT22;8249;48.708;9.030;2023-05-31T14:38:46;27.60;57.70
16283;DHT22;8249;48.708;9.030;2023-05-31T14:41:13;27.60;55.20
16283;DHT22;8249;48.708;9.030;2023-05-31T14:43:40;27.40;55.00
16283;DHT22;8249;48.708;9.030;2023-05-31T14:46:08;27.20;57.30
16283;DHT22;8249;48.708;9.030;2023-05-31T14:48:36;27.30;56.30
16283;DHT22;8249;48.708;9.030;2023-05-31T14:51:03;27.30;55.80
16283;DHT22;8249;48.708;9.030;2023-05-31T14:53:30;27.30;55.40
16283;DHT22;8249;48.708;9.030;2023-05-31T14:55:57;27.40;55.80
16283;DHT22;8249;48.708;9.030;2023-05-31T14:58:24;27.40;56.30
16283;DHT22;8249;48.708;9.030;2023-05-31T15:00:51;27.30;55.60
16283;DHT22;8249;48.708;9.030;2023-05-31T15:03:19;27.20;55.70
16283;DHT22;8249;48.708;9.030;2023-05-31T15:05:46;27.20;57.40
16283;DHT22;8249;48.708;9.030;2023-05-31T15:08:13;27.20;55.60
16283;DHT22;8249;48.708;9.030;2023-05-31T15:10:40;27.20;56.80
16283;DHT22;8249;48.708;9.030;2023-05-31T15:13:08;27.30;57.30
16283;DHT22;8249;48.708;9.030;2023-05-31T15:15:35;27.30;57.20
16283;DHT22;8249;48.708;9.030;2023-05-31T15:18:03;27.00;55.90
16283;DHT22;8249;48.708;9.030;2023-05-31T15:20:32;26.90;57.10
16283;DHT22;8249;48.708;9.030;2023-05-31T15:22:59;26.70;55.20
16283;DHT22;8249;48.708;9.030;2023-05-31T15:25:26;26.50;56.60
16283;DHT22;8249;48.708;9.030;2023-05-31T15:27:53;26.50;56.80
16283;DHT22;8249;48.708;9.030;2023-05-31T15:30:20;26.50;57.90
16283;DHT22;8249;48.708;9.030;2023-05-31T15:32:47;26.30;57.00
16283;DHT22;8249;48.708;9.030;2023-05-31T15:35:14;26.20;57.80
16283;DHT22;8249;48.708;9.030;2023-05-31T15:37:43;26.10;57.00
16283;DHT22;8249;48.708;9.030;2023-05-31T15:40:11;26.10;59.70
16283;DHT22;8249;48.708;9.030;2023-05-31T15:42:39;26.10;57.60
16283;DHT22;8249;48.708;9.030;2023-05-31T15:45:07;26.20;59.40
16283;DHT22;8249;48.708;9.030;2023-05-31T15:47:34;26.20;57.70
16283;DHT22;8249;48.708;9.030;2023-05-31T15:50:01;26.20;58.70
16283;DHT22;8249;48.708;9.030;2023-05-31T15:52:28;26.00;57.10
16283;DHT22;8249;48.708;9.030;2023-05-31T15:54:57;25.80;57.70
16283;DHT22;8249;48.708;9.030;2023-05-31T15:57:24;25.70;59.10
16283;DHT22;8249;48.708;9.030;2023-05-31T15:59:52;25.60;58.10